Time;durP1;ratioP1;P1;durP2;ratioP2;P2;SDS_P1;SDS_P2;PMS_P1;PMS_P2;Temp;Humidity;BMP_temperature;BMP_pressure;BME280_temperature;BME280_humidity;BME280_pressure;Samples;Min_cycle;Max_cycle;Signal;HPM_P1;HPM_P2
2021/04/14 00:01:09;;;;;;;0.77;0.60;;;24.60;36.20;;;;;;5075268;28;20423;-59
2021/04/14 00:03:35;;;;;;;1.33;0.70;;;24.50;36.20;;;;;;5081395;28;20401;-57
2021/04/14 00:06:01;;;;;;;0.90;0.70;;;24.50;36.10;;;;;;5080044;28;20034;-60
2021/04/14 00:08:32;;;;;;;1.52;0.73;;;24.50;36.20;;;;;;5081817;28;20042;-57
2021/04/14 00:10:58;;;;;;;1.27;0.70;;;24.50;36.10;;;;;;5081569;28;20706;-58
2021/04/14 00:13:29;;;;;;;1.63;0.80;;;24.50;36.10;;;;;;5068038;28;20102;-59
2021/04/14 00:15:56;;;;;;;1.33;0.60;;;24.50;36.10;;;;;;5063045;28;20171;-58
2021/04/14 00:18:22;;;;;;;1.20;0.70;;;24.50;36.10;;;;;;5080883;28;20123;-58
2021/04/14 00:20:48;;;;;;;0.90;0.65;;;24.40;36.00;;;;;;5079220;28;20046;-60
2021/04/14 00:23:16;;;;;;;1.05;0.70;;;24.40;36.10;;;;;;5080379;28;22146;-58
2021/04/14 00:25:44;;;;;;;1.48;0.80;;;24.50;36.60;;;;;;5082375;28;20024;-62
2021/04/14 00:28:11;;;;;;;1.30;0.80;;;24.40;36.00;;;;;;5067939;28;20130;-58
2021/04/14 00:30:37;;;;;;;1.30;0.70;;;24.40;36.00;;;;;;5076241;28;20032;-57
2021/04/14 00:33:03;;;;;;;2.28;0.73;;;24.40;36.00;;;;;;5077385;28;20034;-59
2021/04/14 00:35:29;;;;;;;1.00;0.60;;;24.40;36.00;;;;;;5079220;28;20050;-59
2021/04/14 00:37:55;;;;;;;1.75;0.75;;;24.40;36.00;;;;;;5080437;28;20028;-59
2021/04/14 00:40:26;;;;;;;0.70;0.68;;;24.40;36.00;;;;;;5083052;28;20020;-57
2021/04/14 00:42:52;;;;;;;0.95;0.70;;;24.40;36.00;;;;;;5085643;28;20353;-59
2021/04/14 00:45:18;;;;;;;1.55;0.70;;;24.40;36.00;;;;;;5084641;28;20101;-60
2021/04/14 00:47:44;;;;;;;1.65;0.70;;;24.30;35.90;;;;;;5085049;28;20035;-60
2021/04/14 00:50:14;;;;;;;1.25;0.70;;;24.40;35.90;;;;;;5084062;28;20024;-58
2021/04/14 00:52:40;;;;;;;0.80;0.68;;;24.30;35.80;;;;;;5085890;28;20082;-59
2021/04/14 00:55:09;;;;;;;0.88;0.70;;;24.30;35.90;;;;;;5081956;28;20032;-61
2021/04/14 00:57:34;;;;;;;1.05;0.68;;;24.30;35.90;;;;;;5074203;28;20032;-60
2021/04/14 01:00:00;;;;;;;1.13;0.75;;;24.30;35.80;;;;;;5080545;28;20051;-59
2021/04/14 01:02:28;;;;;;;1.23;0.70;;;24.30;35.80;;;;;;5078082;28;20044;-58
2021/04/14 01:04:53;;;;;;;1.23;0.80;;;24.30;36.00;;;;;;5082548;28;20035;-60
2021/04/14 01:07:19;;;;;;;1.40;0.80;;;24.30;36.40;;;;;;5083929;28;20020;-60
2021/04/14 01:09:45;;;;;;;0.85;0.68;;;24.30;35.80;;;;;;5076352;28;20450;-60
2021/04/14 01:12:10;;;;;;;1.20;0.65;;;24.30;35.80;;;;;;5098327;28;20049;-59
2021/04/14 01:14:36;;;;;;;0.82;0.68;;;24.30;35.80;;;;;;5082633;28;20024;-60
2021/04/14 01:17:02;;;;;;;1.08;0.70;;;24.30;35.80;;;;;;5084306;28;20042;-59
2021/04/14 01:19:29;;;;;;;1.77;0.80;;;24.30;35.80;;;;;;5064023;28;20457;-59
2021/04/14 01:21:55;;;;;;;1.50;0.80;;;24.20;35.70;;;;;;5061430;28;20063;-60
2021/04/14 01:24:21;;;;;;;0.60;0.60;;;24.20;35.70;;;;;;5081114;28;20099;-59
2021/04/14 01:26:47;;;;;;;0.70;0.52;;;24.20;35.70;;;;;;5069469;28;20063;-58
2021/04/14 01:29:13;;;;;;;0.98;0.63;;;24.20;35.70;;;;;;5081805;28;20115;-57
2021/04/14 01:31:40;;;;;;;0.68;0.60;;;24.20;35.80;;;;;;5079344;28;20075;-61
2021/04/14 01:34:11;;;;;;;0.80;0.60;;;24.20;35.80;;;;;;5079191;28;20134;-60
2021/04/14 01:36:37;;;;;;;0.90;0.60;;;24.20;35.80;;;;;;5080257;28;20044;-60
2021/04/14 01:39:04;;;;;;;1.08;0.63;;;24.20;35.70;;;;;;5084114;28;20040;-58
2021/04/14 01:41:30;;;;;;;0.85;0.65;;;24.10;35.70;;;;;;5082859;28;20409;-59
2021/04/14 01:43:55;;;;;;;1.00;0.77;;;24.10;35.70;;;;;;5084085;28;20418;-59
2021/04/14 01:46:21;;;;;;;1.10;0.50;;;24.10;35.80;;;;;;5083471;28;20256;-59
2021/04/14 01:48:46;;;;;;;0.93;0.68;;;24.10;35.80;;;;;;5071761;28;20127;-59
2021/04/14 01:51:14;;;;;;;1.58;0.70;;;24.10;35.80;;;;;;5081708;28;20109;-58
2021/04/14 01:53:40;;;;;;;0.70;0.52;;;24.00;35.70;;;;;;5078810;28;20128;-59
2021/04/14 01:56:06;;;;;;;0.63;0.60;;;24.00;35.70;;;;;;5072637;28;20139;-58
2021/04/14 01:58:32;;;;;;;1.00;0.70;;;24.00;35.80;;;;;;5080446;28;20193;-57
2021/04/14 02:01:01;;;;;;;1.17;0.60;;;24.00;35.70;;;;;;5081278;28;20107;-59
2021/04/14 02:03:30;;;;;;;1.13;0.70;;;24.00;35.80;;;;;;5083488;28;20477;-58
2021/04/14 02:05:56;;;;;;;1.40;0.73;;;24.00;35.80;;;;;;5064459;28;20262;-59
2021/04/14 02:08:22;;;;;;;0.50;0.50;;;24.00;35.80;;;;;;5080717;28;20028;-60
2021/04/14 02:10:51;;;;;;;0.82;0.60;;;23.90;35.70;;;;;;5082275;28;20036;-60
2021/04/14 02:13:23;;;;;;;0.90;0.60;;;23.90;35.80;;;;;;5081884;28;20067;-57
2021/04/14 02:15:50;;;;;;;1.20;0.70;;;23.90;35.80;;;;;;5082822;28;20055;-61
2021/04/14 02:18:16;;;;;;;0.70;0.60;;;23.90;35.80;;;;;;5082303;28;20035;-59
2021/04/14 02:20:42;;;;;;;0.95;0.50;;;23.90;35.80;;;;;;5082260;28;20168;-58
2021/04/14 02:23:17;;;;;;;0.88;0.60;;;23.90;35.80;;;;;;5082906;28;20432;-59
2021/04/14 02:25:43;;;;;;;0.70;0.50;;;23.90;35.80;;;;;;5076580;28;20043;-59
2021/04/14 02:28:09;;;;;;;0.93;0.60;;;23.90;35.80;;;;;;5076335;28;20462;-60
2021/04/14 02:30:35;;;;;;;0.50;0.50;;;23.90;35.80;;;;;;5079630;28;20889;-58
2021/04/14 02:33:01;;;;;;;0.95;0.63;;;23.80;35.80;;;;;;5083195;28;20021;-59
2021/04/14 02:35:27;;;;;;;1.05;0.70;;;23.80;35.80;;;;;;5080745;28;20024;-59
2021/04/14 02:37:53;;;;;;;1.10;0.65;;;23.80;35.80;;;;;;5078826;28;20093;-58
2021/04/14 02:40:20;;;;;;;0.68;0.60;;;23.80;35.80;;;;;;5081317;28;20443;-59
2021/04/14 02:42:45;;;;;;;0.70;0.50;;;23.80;35.80;;;;;;5067518;28;20039;-58
2021/04/14 02:45:13;;;;;;;0.75;0.52;;;23.80;35.80;;;;;;5081723;28;20474;-58
2021/04/14 02:47:39;;;;;;;0.70;0.50;;;23.80;35.80;;;;;;5080164;28;20071;-57
2021/04/14 02:50:07;;;;;;;1.15;0.50;;;23.80;35.80;;;;;;5078323;28;20032;-58
2021/04/14 02:52:33;;;;;;;0.90;0.60;;;23.80;35.80;;;;;;5081915;28;20066;-60
2021/04/14 02:54:59;;;;;;;1.10;0.70;;;23.80;35.80;;;;;;5079840;28;20034;-59
2021/04/14 02:57:24;;;;;;;0.90;0.50;;;23.70;35.70;;;;;;5082014;28;20027;-58
2021/04/14 02:59:50;;;;;;;0.43;0.40;;;23.70;35.70;;;;;;5078879;28;20437;-59
2021/04/14 03:02:16;;;;;;;0.57;0.47;;;23.70;36.30;;;;;;5076405;28;20044;-57
2021/04/14 03:04:42;;;;;;;0.75;0.50;;;23.70;35.70;;;;;;5080679;28;20226;-59
2021/04/14 03:07:07;;;;;;;0.45;0.40;;;23.80;35.80;;;;;;5081021;28;20045;-59
2021/04/14 03:09:33;;;;;;;0.60;0.50;;;23.70;35.70;;;;;;5076719;28;20639;-59
2021/04/14 03:11:59;;;;;;;0.50;0.50;;;23.70;35.80;;;;;;5081260;28;20093;-59
2021/04/14 03:14:25;;;;;;;0.85;0.55;;;23.70;35.80;;;;;;5081237;28;20039;-59
2021/04/14 03:16:51;;;;;;;0.50;0.50;;;23.70;35.80;;;;;;5073786;28;20471;-60
2021/04/14 03:19:16;;;;;;;0.82;0.60;;;23.70;35.80;;;;;;5079215;28;20458;-59
2021/04/14 03:21:42;;;;;;;0.68;0.50;;;23.70;35.80;;;;;;5081046;28;20072;-59
2021/04/14 03:24:08;;;;;;;0.50;0.50;;;23.70;35.80;;;;;;5079515;28;20031;-58
2021/04/14 03:26:33;;;;;;;0.60;0.55;;;23.70;35.80;;;;;;5076057;28;20032;-60
2021/04/14 03:29:00;;;;;;;0.57;0.50;;;23.60;35.70;;;;;;5074925;28;20062;-59
2021/04/14 03:31:26;;;;;;;0.63;0.60;;;23.60;35.70;;;;;;5080783;28;20071;-60
2021/04/14 03:33:53;;;;;;;0.80;0.60;;;23.60;35.70;;;;;;5082009;28;20331;-60
2021/04/14 03:36:19;;;;;;;0.73;0.60;;;23.60;35.70;;;;;;5080199;28;20043;-55
2021/04/14 03:38:46;;;;;;;0.50;0.50;;;23.70;35.80;;;;;;5081562;28;20490;-57
2021/04/14 03:41:11;;;;;;;0.77;0.60;;;23.60;35.70;;;;;;5075251;28;20032;-58
2021/04/14 03:43:37;;;;;;;0.50;0.50;;;23.60;35.70;;;;;;5076801;28;20039;-60
2021/04/14 03:46:03;;;;;;;0.73;0.50;;;23.60;35.80;;;;;;5082148;28;20040;-60
2021/04/14 03:48:28;;;;;;;0.73;0.60;;;23.60;36.30;;;;;;5074195;28;20032;-61
2021/04/14 03:50:54;;;;;;;0.73;0.60;;;23.60;35.80;;;;;;5082566;28;20075;-58
2021/04/14 03:53:28;;;;;;;0.43;0.40;;;23.60;35.80;;;;;;5078665;28;20058;-58
2021/04/14 03:56:05;;;;;;;1.13;0.50;;;23.60;35.80;;;;;;5075205;28;20024;-59
2021/04/14 03:58:33;;;;;;;0.70;0.60;;;23.60;35.80;;;;;;5077789;28;20115;-58
2021/04/14 04:01:02;;;;;;;0.50;0.50;;;23.60;35.80;;;;;;5073020;28;20051;-60
2021/04/14 04:03:28;;;;;;;0.60;0.50;;;23.60;35.80;;;;;;5081078;28;20131;-59
2021/04/14 04:05:54;;;;;;;1.02;0.63;;;23.50;35.80;;;;;;5081012;28;20070;-59
2021/04/14 04:08:20;;;;;;;0.80;0.40;;;23.60;35.80;;;;;;5080062;28;20401;-59
2021/04/14 04:10:45;;;;;;;1.52;0.88;;;23.50;35.80;;;;;;5081957;28;20093;-59
2021/04/14 04:13:13;;;;;;;0.95;0.60;;;23.60;35.80;;;;;;5083032;28;20032;-59
2021/04/14 04:15:38;;;;;;;0.55;0.55;;;23.50;35.80;;;;;;5083287;28;20043;-60
2021/04/14 04:18:06;;;;;;;0.90;0.60;;;23.50;35.80;;;;;;5085517;28;20113;-60
2021/04/14 04:20:32;;;;;;;0.50;0.50;;;23.50;35.80;;;;;;5084892;28;20032;-57
2021/04/14 04:22:59;;;;;;;0.50;0.50;;;23.50;35.80;;;;;;5085323;28;20036;-58
2021/04/14 04:25:24;;;;;;;0.43;0.43;;;23.50;35.80;;;;;;5084444;28;20068;-58
2021/04/14 04:27:50;;;;;;;0.55;0.40;;;23.50;35.80;;;;;;5084743;28;20040;-57
2021/04/14 04:30:16;;;;;;;1.15;0.60;;;23.50;35.80;;;;;;5084622;28;20456;-61
2021/04/14 04:32:42;;;;;;;0.50;0.50;;;23.50;35.80;;;;;;5085430;28;20028;-59
2021/04/14 04:35:08;;;;;;;0.60;0.50;;;23.50;35.80;;;;;;5079775;28;20228;-59
2021/04/14 04:37:35;;;;;;;0.65;0.52;;;23.50;35.80;;;;;;5080137;28;20116;-60
2021/04/14 04:40:00;;;;;;;0.40;0.40;;;23.50;36.40;;;;;;5080230;28;20472;-59
2021/04/14 04:42:26;;;;;;;0.60;0.50;;;23.40;35.80;;;;;;5084765;28;20115;-58
2021/04/14 04:44:52;;;;;;;0.50;0.50;;;23.50;35.90;;;;;;5083554;28;20044;-56
2021/04/14 04:47:17;;;;;;;0.50;0.50;;;23.40;35.90;;;;;;5083344;28;20212;-57
2021/04/14 04:49:43;;;;;;;0.57;0.50;;;23.40;36.00;;;;;;5083668;28;20040;-59
2021/04/14 04:52:09;;;;;;;0.60;0.50;;;23.40;35.90;;;;;;5068811;28;20037;-59
2021/04/14 04:54:35;;;;;;;1.25;0.60;;;23.40;35.90;;;;;;5072097;28;20576;-57
2021/04/14 04:57:01;;;;;;;1.00;0.60;;;23.40;36.00;;;;;;5076932;28;20457;-59
2021/04/14 04:59:26;;;;;;;0.95;0.70;;;23.40;36.00;;;;;;5084470;28;20024;-57
2021/04/14 05:01:53;;;;;;;1.33;0.60;;;23.40;36.00;;;;;;5081654;28;20047;-60
2021/04/14 05:04:21;;;;;;;1.17;0.60;;;23.40;36.10;;;;;;5077231;28;20040;-59
2021/04/14 05:06:46;;;;;;;0.82;0.52;;;23.40;36.10;;;;;;5081618;28;20116;-60
2021/04/14 05:09:12;;;;;;;0.60;0.50;;;23.40;36.20;;;;;;5082988;28;20044;-60
2021/04/14 05:11:38;;;;;;;0.70;0.50;;;23.40;36.20;;;;;;5083718;28;20058;-60
2021/04/14 05:14:04;;;;;;;0.63;0.50;;;23.40;36.20;;;;;;5082010;28;20390;-61
2021/04/14 05:16:30;;;;;;;0.90;0.50;;;23.40;36.20;;;;;;5079565;28;20131;-58
2021/04/14 05:18:55;;;;;;;0.95;0.50;;;23.40;36.20;;;;;;5087181;28;20030;-60
2021/04/14 05:21:21;;;;;;;1.63;0.50;;;23.40;36.20;;;;;;5084083;28;20043;-57
2021/04/14 05:23:48;;;;;;;0.88;0.60;;;23.40;36.20;;;;;;5082373;28;20044;-59
2021/04/14 05:26:14;;;;;;;0.85;0.52;;;23.40;36.30;;;;;;5076435;28;20033;-59
2021/04/14 05:28:42;;;;;;;0.85;0.60;;;23.40;36.30;;;;;;5083089;28;20043;-61
2021/04/14 05:31:07;;;;;;;1.45;0.57;;;23.40;36.30;;;;;;5083752;28;20487;-59
2021/04/14 05:33:33;;;;;;;0.93;0.57;;;23.40;36.30;;;;;;5083551;28;20288;-60
2021/04/14 05:35:58;;;;;;;1.25;0.60;;;23.40;36.30;;;;;;5084190;28;20102;-59
2021/04/14 05:38:24;;;;;;;1.42;0.60;;;23.40;36.30;;;;;;5082418;28;20032;-60
2021/04/14 05:40:50;;;;;;;2.25;0.60;;;23.40;36.30;;;;;;5084044;28;20063;-58
2021/04/14 05:43:26;;;;;;;1.38;0.73;;;23.30;36.30;;;;;;5081890;28;20032;-60
2021/04/14 05:45:58;;;;;;;1.52;0.65;;;23.40;36.30;;;;;;5082620;28;20046;-59
2021/04/14 05:48:24;;;;;;;1.02;0.70;;;23.30;36.80;;;;;;5080921;28;20081;-61
2021/04/14 05:50:50;;;;;;;1.20;0.60;;;23.30;36.30;;;;;;5070541;28;20043;-60
2021/04/14 05:53:16;;;;;;;1.05;0.60;;;23.30;36.30;;;;;;5082424;28;20181;-60
2021/04/14 05:55:42;;;;;;;1.63;1.00;;;23.30;36.30;;;;;;5082555;28;20024;-59
2021/04/14 05:58:07;;;;;;;1.63;0.70;;;23.30;36.40;;;;;;5083644;28;20047;-61
2021/04/14 06:00:34;;;;;;;1.83;0.68;;;23.30;36.30;;;;;;5082026;28;20047;-60
2021/04/14 06:02:59;;;;;;;1.92;0.73;;;23.30;36.30;;;;;;5084260;28;20032;-60
2021/04/14 06:05:25;;;;;;;0.98;0.60;;;23.30;36.40;;;;;;5081849;28;20067;-59
2021/04/14 06:07:51;;;;;;;1.42;0.70;;;23.30;36.30;;;;;;5082357;28;20368;-61
2021/04/14 06:10:20;;;;;;;1.83;0.77;;;23.30;36.40;;;;;;5078978;28;20485;-56
2021/04/14 06:12:50;;;;;;;2.30;0.82;;;23.30;36.50;;;;;;5078546;28;20086;-60
2021/04/14 06:15:26;;;;;;;1.95;0.80;;;23.40;36.60;;;;;;5074729;28;20080;-60
2021/04/14 06:17:52;;;;;;;1.45;0.77;;;23.40;36.60;;;;;;5082924;28;20032;-59
2021/04/14 06:20:21;;;;;;;2.75;0.90;;;23.40;36.60;;;;;;5092669;28;20042;-61
2021/04/14 06:22:47;;;;;;;2.10;0.90;;;23.40;36.60;;;;;;5085588;28;20028;-56
2021/04/14 06:25:16;;;;;;;1.60;0.80;;;23.50;36.60;;;;;;5083823;28;20039;-59
2021/04/14 06:30:21;;;;;;;1.77;0.90;;;23.50;36.60;;;;;;5083543;28;20054;-60
2021/04/14 06:32:46;;;;;;;2.13;0.90;;;23.50;36.50;;;;;;5084672;28;20055;-57
2021/04/14 06:35:15;;;;;;;1.30;0.80;;;23.60;36.60;;;;;;5084075;28;20028;-58
2021/04/14 06:37:40;;;;;;;2.17;0.90;;;23.60;36.60;;;;;;5082921;28;20096;-59
2021/04/14 06:42:58;;;;;;;1.73;0.80;;;23.60;36.50;;;;;;5085250;28;20036;-60
2021/04/14 06:45:27;;;;;;;1.65;0.88;;;23.70;36.50;;;;;;5080542;28;20043;-60
2021/04/14 06:48:00;;;;;;;1.75;0.90;;;23.70;36.50;;;;;;5084646;28;20028;-58
2021/04/14 06:50:33;;;;;;;2.97;0.80;;;23.70;36.40;;;;;;5082847;28;20042;-58
2021/04/14 06:53:30;;;;;;;2.55;0.80;;;23.70;36.40;;;;;;5084556;28;20036;-57
2021/04/14 06:56:07;;;;;;;1.10;0.70;;;23.70;36.40;;;;;;5081515;28;20103;-58
2021/04/14 06:58:43;;;;;;;2.00;0.85;;;23.80;36.40;;;;;;5083607;28;20028;-57
2021/04/14 07:01:14;;;;;;;2.05;0.70;;;23.80;36.40;;;;;;5069667;28;20036;-60
2021/04/14 07:04:16;;;;;;;2.35;0.98;;;23.80;36.30;;;;;;5068983;28;20048;-57
2021/04/14 07:06:44;;;;;;;2.47;0.90;;;23.80;36.30;;;;;;5041399;28;20040;-58
2021/04/14 07:09:30;;;;;;;2.03;0.93;;;23.90;36.30;;;;;;5082951;28;20079;-59
2021/04/14 07:11:56;;;;;;;1.92;0.90;;;23.90;36.30;;;;;;5084229;28;20051;-60
2021/04/14 07:14:24;;;;;;;2.67;0.90;;;23.90;36.20;;;;;;5065151;28;20258;-56
2021/04/14 07:17:08;;;;;;;2.95;0.90;;;23.90;36.20;;;;;;5083722;28;20036;-59
2021/04/14 07:19:49;;;;;;;2.67;0.88;;;23.90;36.20;;;;;;5079760;28;20111;-59
2021/04/14 07:22:45;;;;;;;1.90;0.90;;;24.00;36.80;;;;;;5082965;28;20028;-60
2021/04/14 07:25:36;;;;;;;2.10;0.85;;;24.00;36.20;;;;;;5081886;28;20735;-60
2021/04/14 07:28:17;;;;;;;2.85;0.93;;;24.00;36.20;;;;;;5081885;28;20069;-55
2021/04/14 07:30:57;;;;;;;2.35;1.00;;;24.00;36.20;;;;;;5078390;28;20466;-56
2021/04/14 07:33:48;;;;;;;3.20;0.90;;;24.10;36.20;;;;;;5079810;28;20080;-60
2021/04/14 07:36:36;;;;;;;1.98;0.90;;;24.10;36.20;;;;;;5082510;28;20107;-57
2021/04/14 07:39:20;;;;;;;1.67;0.82;;;24.10;36.10;;;;;;5079395;28;20118;-55
2021/04/14 07:42:04;;;;;;;2.40;0.80;;;24.10;36.10;;;;;;5081774;28;20032;-58
2021/04/14 07:44:42;;;;;;;2.40;0.85;;;24.20;36.20;;;;;;5081789;28;20450;-57
2021/04/14 07:47:09;;;;;;;1.83;0.80;;;24.10;36.00;;;;;;5081737;28;20035;-57
2021/04/14 07:49:36;;;;;;;1.95;0.80;;;24.20;36.10;;;;;;5083251;28;20036;-58
2021/04/14 07:52:06;;;;;;;3.28;1.02;;;24.20;36.10;;;;;;5082067;28;20032;-57
2021/04/14 07:54:44;;;;;;;2.22;0.88;;;24.20;36.00;;;;;;5081152;28;20416;-57
2021/04/14 07:57:10;;;;;;;1.77;0.88;;;24.20;36.00;;;;;;5072490;28;20047;-54
2021/04/14 07:59:40;;;;;;;1.90;0.90;;;24.20;35.90;;;;;;5083101;28;20036;-56
2021/04/14 08:02:13;;;;;;;1.73;0.63;;;24.30;36.00;;;;;;5078439;28;20490;-54
2021/04/14 08:04:44;;;;;;;1.52;0.80;;;24.30;36.00;;;;;;5082538;28;20422;-59
2021/04/14 08:07:15;;;;;;;1.20;0.75;;;24.30;36.00;;;;;;5082139;28;20042;-57
2021/04/14 08:09:54;;;;;;;1.38;0.90;;;24.30;35.90;;;;;;5078295;28;20036;-56
2021/04/14 08:12:25;;;;;;;1.05;0.70;;;24.30;35.90;;;;;;5081697;28;20044;-59
2021/04/14 08:14:51;;;;;;;1.63;0.90;;;24.30;35.90;;;;;;5069586;28;20119;-56
2021/04/14 08:17:28;;;;;;;1.25;0.88;;;24.40;35.90;;;;;;5080940;28;20226;-59
2021/04/14 08:20:07;;;;;;;2.65;1.00;;;24.40;35.90;;;;;;5080430;28;20020;-59
2021/04/14 08:22:33;;;;;;;1.45;0.98;;;24.40;35.90;;;;;;5080600;28;20024;-58
2021/04/14 08:25:06;;;;;;;2.28;0.90;;;24.40;35.90;;;;;;5080567;28;20032;-55
2021/04/14 08:27:32;;;;;;;2.25;1.00;;;24.50;35.90;;;;;;5081403;28;20032;-56
2021/04/14 08:30:10;;;;;;;1.60;0.80;;;24.50;36.00;;;;;;5081364;28;20085;-58
2021/04/14 08:32:41;;;;;;;2.90;0.90;;;24.50;35.90;;;;;;5080895;28;20130;-56
2021/04/14 08:35:14;;;;;;;1.67;0.80;;;24.50;36.00;;;;;;5081641;28;20032;-57
2021/04/14 08:37:40;;;;;;;2.78;0.90;;;24.50;35.90;;;;;;5081815;28;20059;-57
2021/04/14 08:40:22;;;;;;;1.60;0.90;;;24.50;35.90;;;;;;5081102;28;20028;-56
2021/04/14 08:42:49;;;;;;;1.40;0.80;;;24.60;36.00;;;;;;5082630;28;20032;-58
2021/04/14 08:45:31;;;;;;;1.63;0.85;;;24.60;36.00;;;;;;5071649;28;20077;-58
2021/04/14 08:48:20;;;;;;;2.33;0.90;;;24.60;36.00;;;;;;5079037;28;20067;-59
2021/04/14 08:50:54;;;;;;;1.70;0.80;;;24.60;36.10;;;;;;5080952;28;20076;-58
2021/04/14 08:53:27;;;;;;;1.63;0.90;;;24.60;36.00;;;;;;5080761;28;20028;-56
2021/04/14 08:55:53;;;;;;;1.23;0.70;;;24.70;36.00;;;;;;5078755;28;20040;-59
2021/04/14 08:58:19;;;;;;;1.77;0.90;;;24.70;36.50;;;;;;5068025;28;20050;-57
2021/04/14 09:00:45;;;;;;;1.60;0.80;;;24.70;36.00;;;;;;5078585;28;20044;-58
2021/04/14 09:03:17;;;;;;;1.73;0.90;;;24.70;36.00;;;;;;5074806;28;20047;-59
2021/04/14 09:05:44;;;;;;;2.05;0.80;;;24.70;36.00;;;;;;5082850;28;20031;-58
2021/04/14 09:08:12;;;;;;;1.05;0.73;;;24.70;36.00;;;;;;5083605;28;20824;-57
2021/04/14 09:10:43;;;;;;;1.88;0.98;;;24.70;36.00;;;;;;5076328;28;20028;-56
2021/04/14 09:13:11;;;;;;;1.23;0.75;;;24.70;36.10;;;;;;5085857;28;20043;-58
2021/04/14 09:15:54;;;;;;;1.95;0.90;;;24.70;36.60;;;;;;5084719;28;20034;-56
2021/04/14 09:18:36;;;;;;;1.30;0.80;;;24.70;36.00;;;;;;5086429;28;20032;-58
2021/04/14 09:21:12;;;;;;;1.58;0.80;;;24.70;36.00;;;;;;5066621;28;20036;-58
2021/04/14 09:23:50;;;;;;;1.40;0.70;;;24.70;36.00;;;;;;5081999;28;20450;-59
2021/04/14 09:26:31;;;;;;;2.40;0.80;;;24.80;36.10;;;;;;5080700;28;20177;-60
2021/04/14 09:28:57;;;;;;;1.05;0.80;;;24.80;36.10;;;;;;5081941;28;20308;-58
2021/04/14 09:31:40;;;;;;;1.55;0.80;;;24.80;36.20;;;;;;5083772;28;20040;-56
2021/04/14 09:34:14;;;;;;;1.30;0.70;;;24.80;36.10;;;;;;5080154;28;20031;-56
2021/04/14 09:36:46;;;;;;;1.65;0.77;;;24.80;36.00;;;;;;5085506;28;20020;-54
2021/04/14 09:39:32;;;;;;;1.52;0.80;;;24.80;36.00;;;;;;5063566;28;20904;-58
2021/04/14 09:41:57;;;;;;;1.13;0.75;;;24.80;36.10;;;;;;5084710;28;20038;-59
2021/04/14 09:44:39;;;;;;;1.48;0.70;;;24.80;36.00;;;;;;5084521;28;20040;-60
2021/04/14 09:47:25;;;;;;;2.10;0.80;;;24.80;36.10;;;;;;5083309;28;20104;-57
2021/04/14 09:49:53;;;;;;;1.88;0.73;;;24.80;36.00;;;;;;5079656;28;20051;-54
2021/04/14 09:52:32;;;;;;;1.52;0.88;;;24.80;36.00;;;;;;5083941;28;20308;-57
2021/04/14 09:55:38;;;;;;;2.20;0.90;;;24.80;36.00;;;;;;5083992;28;20047;-59
2021/04/14 09:58:13;;;;;;;1.40;0.70;;;24.90;36.10;;;;;;5069867;28;20051;-56
2021/04/14 10:00:43;;;;;;;2.22;1.10;;;24.90;36.00;;;;;;5077333;28;20948;-58
2021/04/14 10:03:28;;;;;;;;;;;24.90;36.10;;;;;;5082742;28;20120;-57
2021/04/14 10:05:56;;;;;;;1.67;0.73;;;24.90;36.10;;;;;;5084073;28;20030;-58
2021/04/14 10:08:22;;;;;;;2.10;0.80;;;24.90;35.90;;;;;;5080284;28;20546;-56
2021/04/14 10:10:48;;;;;;;1.48;0.80;;;24.90;35.90;;;;;;5079369;28;20754;-54
2021/04/14 10:13:16;;;;;;;1.90;0.80;;;24.90;36.00;;;;;;5083176;28;20561;-56
2021/04/14 10:15:44;;;;;;;1.92;0.93;;;25.00;36.00;;;;;;5084747;28;20508;-59
2021/04/14 10:18:23;;;;;;;1.45;0.80;;;25.00;36.00;;;;;;5083542;28;20115;-58
2021/04/14 10:20:50;;;;;;;1.90;0.85;;;25.00;36.00;;;;;;5080152;28;20042;-55
2021/04/14 10:23:23;;;;;;;1.45;0.68;;;25.00;36.00;;;;;;5083590;28;20498;-56
2021/04/14 10:25:49;;;;;;;0.93;0.65;;;24.90;36.00;;;;;;5083197;28;20043;-58
2021/04/14 10:28:15;;;;;;;1.77;0.80;;;25.00;36.10;;;;;;5083541;28;20106;-56
2021/04/14 10:30:47;;;;;;;1.33;0.70;;;25.00;36.00;;;;;;5079930;28;20040;-54
2021/04/14 10:33:24;;;;;;;3.00;1.00;;;25.00;36.00;;;;;;5083987;28;20028;-54
2021/04/14 10:35:51;;;;;;;2.75;1.10;;;25.00;36.10;;;;;;5065990;28;20074;-53
2021/04/14 10:38:47;;;;;;;1.15;0.70;;;25.00;36.10;;;;;;5082829;28;20500;-55
2021/04/14 10:41:29;;;;;;;1.33;0.75;;;25.10;36.20;;;;;;5075402;28;20119;-55
2021/04/14 10:43:54;;;;;;;1.88;0.80;;;25.10;36.20;;;;;;5066261;28;20057;-57
2021/04/14 10:46:28;;;;;;;1.27;0.80;;;25.10;36.30;;;;;;5082798;28;20048;-58
2021/04/14 10:49:06;;;;;;;2.17;0.90;;;25.10;36.20;;;;;;5082591;28;20066;-53
2021/04/14 10:51:45;;;;;;;2.78;0.80;;;25.10;36.30;;;;;;5081428;28;20057;-56
2021/04/14 10:54:13;;;;;;;1.88;0.90;;;25.10;36.30;;;;;;5080577;28;20024;-54
2021/04/14 10:56:39;;;;;;;1.50;0.90;;;25.10;36.30;;;;;;5079554;28;20051;-58
2021/04/14 10:59:14;;;;;;;1.65;0.80;;;25.10;36.30;;;;;;5085018;28;20032;-59
2021/04/14 11:01:43;;;;;;;2.03;1.00;;;25.10;36.40;;;;;;5081573;28;20051;-58
2021/04/14 11:04:15;;;;;;;;;;;25.10;36.40;;;;;;5078932;28;20544;-59
2021/04/14 11:06:43;;;;;;;1.95;0.98;;;25.10;36.40;;;;;;5083298;28;20385;-55
2021/04/14 11:09:09;;;;;;;2.22;1.00;;;25.10;36.40;;;;;;5083776;28;20062;-59
2021/04/14 11:11:37;;;;;;;3.70;1.20;;;25.20;36.40;;;;;;5082746;28;20031;-58
2021/04/14 11:14:06;;;;;;;2.95;1.20;;;25.10;36.40;;;;;;5078290;28;20020;-59
2021/04/14 11:16:33;;;;;;;;;;;25.10;36.40;;;;;;5083888;28;20085;-53
2021/04/14 11:18:59;;;;;;;3.70;1.48;;;25.20;36.40;;;;;;5063875;28;19911;-56
2021/04/14 11:21:30;;;;;;;5.05;1.33;;;25.20;36.40;;;;;;5068898;28;20100;-54
2021/04/14 11:24:16;;;;;;;2.17;1.10;;;25.20;36.40;;;;;;5078761;28;20036;-55
2021/04/14 11:26:58;;;;;;;4.22;1.30;;;25.20;36.40;;;;;;5075696;28;20031;-50
2021/04/14 11:29:27;;;;;;;2.42;1.20;;;25.20;36.30;;;;;;5082702;28;20035;-56
2021/04/14 11:31:53;;;;;;;3.13;1.33;;;25.20;36.20;;;;;;5082515;28;20048;-54
2021/04/14 11:34:30;;;;;;;2.42;1.27;;;25.20;36.20;;;;;;5081451;28;20028;-53
2021/04/14 11:37:04;;;;;;;2.58;1.20;;;25.20;36.70;;;;;;5083182;28;20028;-54
2021/04/14 11:39:49;;;;;;;3.05;1.40;;;25.20;36.10;;;;;;5082445;28;20020;-53
2021/04/14 11:42:17;;;;;;;3.20;1.33;;;25.20;35.70;;;;;;5082412;28;20077;-53
2021/04/14 11:44:56;;;;;;;4.60;1.23;;;25.20;35.80;;;;;;5081374;28;20032;-53
2021/04/14 11:47:34;;;;;;;2.33;1.15;;;25.20;35.80;;;;;;5082182;28;20024;-54
2021/04/14 11:50:20;;;;;;;5.03;1.67;;;25.30;35.80;;;;;;5076262;28;20101;-58
2021/04/14 11:52:54;;;;;;;3.63;1.30;;;25.30;35.90;;;;;;5081919;28;20032;-55
2021/04/14 11:55:22;;;;;;;3.33;1.40;;;25.30;35.70;;;;;;5081866;28;20036;-56
2021/04/14 11:58:19;;;;;;;3.92;1.58;;;25.30;35.60;;;;;;5081037;28;20529;-53
2021/04/14 12:00:46;;;;;;;3.63;1.40;;;25.30;35.50;;;;;;5080767;28;20157;-56
2021/04/14 12:03:21;;;;;;;3.55;1.58;;;25.30;35.70;;;;;;5076819;28;20024;-56
2021/04/14 12:05:52;;;;;;;3.28;1.30;;;25.30;35.60;;;;;;5073446;28;20028;-58
2021/04/14 12:08:18;;;;;;;2.92;1.08;;;25.40;35.70;;;;;;5080504;28;20028;-57
2021/04/14 12:10:44;;;;;;;4.75;1.35;;;25.30;35.50;;;;;;5076282;28;20032;-59
2021/04/14 12:13:10;;;;;;;3.55;1.27;;;25.30;35.50;;;;;;5074838;28;20090;-56
2021/04/14 12:15:36;;;;;;;3.50;1.40;;;25.30;35.50;;;;;;5081699;28;20419;-53
2021/04/14 12:18:01;;;;;;;3.35;1.30;;;25.30;35.50;;;;;;5082209;28;20409;-56
2021/04/14 12:20:27;;;;;;;2.67;1.45;;;25.40;35.50;;;;;;5081818;28;20122;-59
2021/04/14 12:22:53;;;;;;;2.63;1.15;;;25.40;35.50;;;;;;5081355;28;20820;-58
2021/04/14 12:25:19;;;;;;;2.92;1.30;;;25.40;35.60;;;;;;5080954;28;20073;-56
2021/04/14 12:27:46;;;;;;;3.22;1.30;;;25.40;35.50;;;;;;5080731;28;20106;-53
2021/04/14 12:30:13;;;;;;;3.38;1.20;;;25.40;35.50;;;;;;5080919;28;20114;-58
2021/04/14 12:32:38;;;;;;;4.38;1.48;;;25.40;35.50;;;;;;5079765;28;20514;-57
2021/04/14 12:35:05;;;;;;;2.75;1.35;;;25.40;35.60;;;;;;5082981;28;20154;-56
2021/04/14 12:37:31;;;;;;;2.30;1.20;;;25.40;35.60;;;;;;5078599;28;20088;-54
2021/04/14 12:39:56;;;;;;;3.00;1.10;;;25.40;35.60;;;;;;5084869;28;20032;-53
2021/04/14 12:42:22;;;;;;;3.03;1.27;;;25.40;35.60;;;;;;5084221;28;20036;-54
2021/04/14 12:44:52;;;;;;;3.03;1.17;;;25.40;35.60;;;;;;5084120;28;20100;-56
2021/04/14 12:47:23;;;;;;;2.60;1.30;;;25.40;35.70;;;;;;5083071;28;20025;-55
2021/04/14 12:49:50;;;;;;;3.47;1.27;;;25.40;35.70;;;;;;5082948;28;20517;-52
2021/04/14 12:52:43;;;;;;;3.00;1.27;;;25.40;35.60;;;;;;5085593;28;20077;-56
2021/04/14 12:55:26;;;;;;;3.78;1.25;;;25.40;35.70;;;;;;5078522;28;20052;-55
2021/04/14 12:57:57;;;;;;;4.35;1.17;;;25.40;35.70;;;;;;5079072;28;20031;-56
2021/04/14 13:00:25;;;;;;;2.63;1.20;;;25.40;35.70;;;;;;5084523;28;20032;-54
2021/04/14 13:03:00;;;;;;;3.45;1.10;;;25.40;35.70;;;;;;5084412;28;20466;-58
2021/04/14 13:05:42;;;;;;;2.38;1.20;;;25.40;35.80;;;;;;5066152;28;20048;-54
2021/04/14 13:08:24;;;;;;;4.95;1.23;;;25.40;35.70;;;;;;5080897;28;20173;-55